Wood, Iowa
Current Conditions -  °F | °C
As of 8:55 AM on Sunday 21 Dec 2014 (Local Time) from KPDC Reporting Station
Haze Haze  
Wind Chill: -1°   Ceiling: 600
Heat Index:   Visibility: 4mi
Dew Point:   Wind: 8mph
Humidity: 89%   Direction: 140°SE
Pressure: 30.04"   Gusts: NA
Location:  42.6679°N, 91.3801°W
Report Text: KPDC 211455Z AUTO 14007KT 4SM BR OVC006 02/01 A3004 RMK AO2 T00220005
Loading
Personal Weather Stations






























Interactive Weather Map New forecast layout! Learn more

10-Day Weather Forecast

Advertisements
Track Severe Weather on mobile